Total volume
$7,012
$166,800 in 24h
Trades
283
Unique wallets
217
Liquidity
$0
Latest YES mid
73¢
Latest NO mid
27¢
End date
2026-05-05
First seen
2026-05-05
last 05-05 00:45
Wallet Side Net shares Cost basis Volume Trades Last activity
Distant-Marshmallow 0xcbcf…63bd Down +35,496 $355 $355 1 05-05 00:45
Shocked-Acetate 0x2a9c…c8cf Up +3,249 $3,199 $3,199 2 05-05 00:45
(anonymous) 0x8bbf…d9ad Down +1,099 $11 $11 1 05-05 00:45
General-School 0x01ca…200d Up +1,069 $379 $379 2 05-05 00:44
Jolly-Museum 0x4a1b…862d Down +1,000 $10 $10 1 05-05 00:45
(anonymous) 0x938c…9f55 Down +999 $10 $10 1 05-05 00:45
Mellow-Settlement 0x9b55…1167 Down +999 $200 $200 1 05-05 00:45
Baggy-Keeper-Hill 0xb81b…7f46 Down +500 $5 $5 1 05-05 00:45
Square-Durian 0x933a…1fe0 Down +300 $222 $222 1 05-05 00:44
Shimmering-Finance 0xab38…89ae Down +259 $200 $200 1 05-05 00:44
Ignorant-Beneficiary-Warren 0xb305…ca4e Up +200 $58 $58 2 05-05 00:44
Astonishing-Onion 0x66f7…c691 Down +200 $22 $22 1 05-05 00:45
Wan-Makeover 0xcabb…20e1 Down +147 $97 $97 1 05-05 00:44
Brilliant-Rethinking 0xe78f…04a4 Down +145 $100 $100 1 05-05 00:44
Fitting-Yolk 0xae4d…8f4d Down +142 $100 $100 1 05-05 00:44
Flickering-Commuter 0x2334…9a9f Up +131 $46 $46 1 05-05 00:44
Exotic-Scholar 0x63ad…c072 Up +119 $42 $42 4 05-05 00:44
Stiff-Blackberry 0x10c9…e999 Up +100 $60 $60 1 05-05 00:44
Possible-Recording 0x4288…6ff3 Down +100 $1 $1 1 05-05 00:45
Welcome-Apprehension 0x27ff…e54a Down +100 $1 $1 1 05-05 00:45
Svelte-Chicory 0x9412…0cd0 Down +100 $64 $64 1 05-05 00:44
Profitable-Disengagement 0x2528…b041 Down +92 $59 $59 1 05-05 00:44
Gray-Water 0x6560…a3db Down +90 $66 $66 3 05-05 00:44
Monstrous-Dew 0x5b63…11a4 Down +85 $57 $57 2 05-05 00:44
(anonymous) 0xe907…cff6 Down +81 $56 $56 2 05-05 00:44
Miniature-Beach 0xdbe0…26bc Down +80 $8 $8 1 05-05 00:45
Lavish-Dentist 0x0a07…bb4f Down +80 $42 $42 1 05-05 00:40
Leading-Raid 0x5482…23cd Up +78 $20 $20 6 05-05 00:44
Likable-Whirlwind 0x35ad…33f9 Down +78 $50 $50 1 05-05 00:44
Little-Centurion 0x8850…d68d Down +75 $33 $33 1 05-05 00:44
Favorable-Softening 0x9a7f…249a Down +58 $46 $46 1 05-05 00:44
Traumatic-Ukulele-Influx 0x6ce3…f7f7 Down +52 $36 $36 1 05-05 00:44
Ignorant-Cruise 0x0763…dc47 Down +48 $28 $28 7 05-05 00:45
Worthy-Leisure 0x3b0b…05b9 Down +47 $25 $25 1 05-05 00:40
Exalted-Mattress 0xa8cc…41a9 Down +45 $31 $31 1 05-05 00:44
Popular-Insurrection 0xeebd…ba30 Down +45 $29 $29 1 05-05 00:44
Snoopy-Verdict 0xbc50…4543 Down +45 $1 $1 1 05-05 00:45
Frightening-Heifer 0x536b…cee3 Up +30 $30 $30 1 05-05 00:45
Nimble-Harmonica 0x8ab4…ad1e Up +27 $9 $9 1 05-05 00:44
Interesting-Flatboat 0x3d32…a2a7 Up +27 $9 $9 1 05-05 00:44
Insubstantial-Improvement 0x1b77…417e Up +27 $9 $9 1 05-05 00:44
Bare-Variable 0x704b…a3a6 Up +27 $9 $9 1 05-05 00:44
Dearest-Dialogue-Garb 0xb66d…7ec1 Up +27 $9 $9 1 05-05 00:44
Feisty-Attempt 0xc5ab…8bca Up +27 $9 $9 1 05-05 00:44
Internal-Talk 0xa696…d40e Up +27 $9 $9 1 05-05 00:44
Hurtful-Infancy 0xb36b…0cb1 Up +26 $9 $9 5 05-05 00:44
Shady-Marksman-Site 0x3dc7…cff8 Up +22 $7 $7 4 05-05 00:44
Upset-Sight 0xe022…6603 Up +20 $20 $20 1 05-05 00:45
Embarrassed-Lymphocyte 0xf82a…d221 Up +18 $18 $18 1 05-05 00:45
Glossy-Underwriting 0x85e7…d103 Up +15 $15 $15 1 05-05 00:45
Questionable-Miter 0x7b55…8f95 Up +15 $5 $5 2 05-05 00:44
Careful-Sponge 0x9ca3…f1db Up +11 $4 $4 2 05-05 00:44
(anonymous) 0xa461…4ce1 Up +10 $3 $3 2 05-05 00:44
Idolized-Hop 0xb3f7…e599 Up +10 $5 $5 1 05-05 00:40